createdAt,value
2019-02-27T00:01:16.747Z,7.60
2019-02-27T00:03:44.168Z,8.70
2019-02-27T00:06:12.940Z,7.03
2019-02-27T00:08:42.188Z,7.30
2019-02-27T00:11:12.388Z,8.17
2019-02-27T00:13:39.950Z,9.20
2019-02-27T00:16:10.856Z,7.90
2019-02-27T00:18:37.450Z,7.83
2019-02-27T00:21:10.159Z,7.90
2019-02-27T00:23:35.039Z,8.40
2019-02-27T00:26:02.555Z,10.10
2019-02-27T00:28:30.120Z,8.63
2019-02-27T00:30:57.727Z,8.07
2019-02-27T00:33:28.469Z,7.20
2019-02-27T00:35:55.823Z,9.07
2019-02-27T00:38:25.279Z,7.43
2019-02-27T00:40:53.080Z,7.47
2019-02-27T00:43:20.655Z,7.23
2019-02-27T00:45:48.203Z,8.80
2019-02-27T00:48:15.687Z,8.17
2019-02-27T00:50:43.671Z,8.93
2019-02-27T00:53:11.471Z,7.50
2019-02-27T00:55:39.529Z,7.23
2019-02-27T00:58:07.152Z,7.90
2019-02-27T01:00:38.998Z,9.37
2019-02-27T01:03:04.665Z,7.80
2019-02-27T01:05:32.601Z,10.30
2019-02-27T01:08:00.770Z,11.10
2019-02-27T01:10:28.847Z,8.67
2019-02-27T01:12:58.199Z,8.37
2019-02-27T01:15:27.241Z,8.07
2019-02-27T01:17:57.552Z,7.37
2019-02-27T01:20:25.135Z,8.60
2019-02-27T01:22:52.674Z,8.63
2019-02-27T01:25:22.993Z,8.60
2019-02-27T01:27:51.544Z,9.37
2019-02-27T01:30:19.427Z,8.40
2019-02-27T01:32:47.177Z,8.70
2019-02-27T01:35:17.511Z,10.10
2019-02-27T01:37:44.698Z,9.77
2019-02-27T01:40:17.228Z,9.83
2019-02-27T01:42:42.614Z,8.97
2019-02-27T01:45:12.465Z,8.83
2019-02-27T01:47:40.239Z,9.53
2019-02-27T01:50:30.922Z,10.40
2019-02-27T01:52:59.103Z,8.17
2019-02-27T01:55:26.979Z,9.47
2019-02-27T01:57:54.816Z,8.80
2019-02-27T02:00:23.871Z,8.67
2019-02-27T02:02:51.563Z,9.27
2019-02-27T02:05:19.048Z,9.93
2019-02-27T02:07:47.428Z,9.57
2019-02-27T02:10:15.138Z,8.30
2019-02-27T02:12:43.249Z,7.57
2019-02-27T02:15:15.485Z,8.10
2019-02-27T02:18:36.242Z,8.73
2019-02-27T02:21:35.826Z,8.27
2019-02-27T02:25:06.207Z,7.97
2019-02-27T02:28:12.119Z,7.93
2019-02-27T02:31:11.006Z,6.70
2019-02-27T02:34:06.931Z,7.40
2019-02-27T02:37:03.257Z,7.20
2019-02-27T02:40:16.189Z,7.90
2019-02-27T02:43:16.026Z,8.13
2019-02-27T02:45:50.115Z,7.40
2019-02-27T02:48:27.683Z,8.17
2019-02-27T02:51:34.831Z,8.10
2019-02-27T02:54:37.567Z,9.97
2019-02-27T02:57:43.184Z,11.47
2019-02-27T03:01:13.926Z,10.33
2019-02-27T03:04:12.970Z,9.50
2019-02-27T03:07:07.176Z,10.97
2019-02-27T03:10:07.440Z,10.87
2019-02-27T03:13:20.587Z,9.17
2019-02-27T03:16:29.958Z,7.77
2019-02-27T03:19:41.786Z,6.40
2019-02-27T03:22:44.014Z,7.20
2019-02-27T03:25:51.459Z,6.90
2019-02-27T03:29:16.839Z,7.80
2019-02-27T03:32:15.063Z,7.43
2019-02-27T03:35:29.150Z,8.00
2019-02-27T03:38:29.823Z,7.73
2019-02-27T03:41:14.302Z,6.50
2019-02-27T03:44:28.751Z,8.00
2019-02-27T03:47:15.437Z,6.50
2019-02-27T03:50:06.403Z,7.63
2019-02-27T03:53:01.252Z,6.33
2019-02-27T03:55:58.325Z,5.77
2019-02-27T03:58:48.876Z,7.33
2019-02-27T04:01:56.723Z,4.77
2019-02-27T04:05:14.929Z,6.27
2019-02-27T04:08:45.371Z,6.50
2019-02-27T04:11:13.563Z,5.77
2019-02-27T04:13:41.238Z,9.60
2019-02-27T04:16:09.628Z,10.67
2019-02-27T04:18:36.091Z,12.03
2019-02-27T04:21:03.868Z,11.27
2019-02-27T04:23:31.722Z,11.73
2019-02-27T04:26:05.429Z,9.40
2019-02-27T04:28:29.944Z,9.77
2019-02-27T04:30:58.229Z,10.50
2019-02-27T04:33:25.783Z,9.43
2019-02-27T04:35:53.290Z,9.17
2019-02-27T04:38:21.360Z,10.27
2019-02-27T04:40:49.803Z,11.70
2019-02-27T04:43:17.838Z,11.30
2019-02-27T04:45:46.890Z,8.90
2019-02-27T04:48:15.147Z,10.87
2019-02-27T04:50:44.139Z,10.70
2019-02-27T04:53:12.387Z,11.63
2019-02-27T04:55:42.710Z,8.23
2019-02-27T04:58:11.574Z,9.53
2019-02-27T05:00:39.192Z,7.97
2019-02-27T05:03:10.982Z,7.10
2019-02-27T05:05:41.435Z,8.03
2019-02-27T05:08:10.059Z,9.37
2019-02-27T05:10:38.211Z,10.20
2019-02-27T05:13:06.943Z,11.13
2019-02-27T05:15:38.917Z,9.13
2019-02-27T05:18:04.550Z,8.03
2019-02-27T05:20:32.342Z,8.50
2019-02-27T05:23:00.945Z,8.70
2019-02-27T05:25:28.695Z,8.63
2019-02-27T05:27:56.468Z,10.23
2019-02-27T05:30:24.547Z,9.80
2019-02-27T05:32:52.477Z,9.60
2019-02-27T05:35:23.329Z,9.73
2019-02-27T05:37:49.766Z,9.80
2019-02-27T05:40:17.854Z,10.23
2019-02-27T05:42:45.702Z,9.50
2019-02-27T05:45:13.551Z,9.40
2019-02-27T05:47:44.841Z,10.97
2019-02-27T05:50:11.298Z,10.37
2019-02-27T05:52:38.890Z,10.90
2019-02-27T05:55:07.082Z,10.50
2019-02-27T05:57:34.666Z,11.93
2019-02-27T06:00:03.385Z,15.63
2019-02-27T06:02:31.011Z,19.17
2019-02-27T06:04:59.207Z,16.70
2019-02-27T06:07:27.461Z,14.27
2019-02-27T06:09:55.052Z,9.60
2019-02-27T06:12:22.579Z,9.10
2019-02-27T06:14:54.826Z,10.00
2019-02-27T06:17:20.099Z,8.80
2019-02-27T06:19:47.954Z,10.20
2019-02-27T06:22:15.748Z,10.50
2019-02-27T06:24:45.601Z,8.20
2019-02-27T06:27:12.966Z,8.80
2019-02-27T06:29:40.470Z,15.33
2019-02-27T06:32:12.136Z,16.63
2019-02-27T06:34:37.666Z,12.80
2019-02-27T06:37:05.233Z,14.00
2019-02-27T06:39:34.428Z,12.30
2019-02-27T06:42:03.019Z,12.40
2019-02-27T06:44:30.634Z,9.70
2019-02-27T06:46:58.121Z,10.40
2019-02-27T06:49:26.406Z,10.37
2019-02-27T06:51:54.190Z,11.40
2019-02-27T06:54:22.010Z,10.67
2019-02-27T06:56:49.604Z,10.90
2019-02-27T06:59:18.211Z,11.70
2019-02-27T07:01:47.500Z,10.10
2019-02-27T07:04:15.595Z,9.10
2019-02-27T07:06:43.055Z,9.70
2019-02-27T07:09:11.618Z,9.00
2019-02-27T07:11:39.688Z,10.57
2019-02-27T07:14:07.240Z,8.33
2019-02-27T07:16:35.083Z,9.40
2019-02-27T07:19:02.981Z,9.60
2019-02-27T07:21:32.808Z,8.20
2019-02-27T07:24:00.270Z,8.80
2019-02-27T07:26:28.097Z,12.43
2019-02-27T07:28:55.992Z,11.33
2019-02-27T07:31:23.938Z,12.37
2019-02-27T07:33:51.561Z,11.30
2019-02-27T07:36:19.162Z,11.13
2019-02-27T07:38:46.975Z,10.43
2019-02-27T07:41:17.478Z,11.83
2019-02-27T07:43:46.527Z,13.00
2019-02-27T07:46:14.688Z,10.93
2019-02-27T07:48:42.599Z,12.50
2019-02-27T07:51:10.123Z,12.07
2019-02-27T07:53:38.071Z,11.77
2019-02-27T07:56:05.783Z,12.50
2019-02-27T07:58:34.567Z,12.90
2019-02-27T08:01:04.483Z,12.13
2019-02-27T08:03:31.750Z,14.13
2019-02-27T08:06:02.442Z,11.73
2019-02-27T08:08:32.060Z,12.00
2019-02-27T08:10:59.707Z,12.17
2019-02-27T08:13:29.686Z,14.47
2019-02-27T08:15:58.131Z,13.37
2019-02-27T08:18:30.229Z,12.27
2019-02-27T08:20:56.072Z,14.00
2019-02-27T08:23:23.905Z,13.17
2019-02-27T08:25:52.318Z,13.60
2019-02-27T08:28:19.826Z,13.30
2019-02-27T08:30:47.446Z,12.93
2019-02-27T08:33:15.450Z,14.60
2019-02-27T08:35:43.010Z,13.00
2019-02-27T08:38:10.873Z,12.30
2019-02-27T08:40:38.638Z,13.23
2019-02-27T08:43:06.752Z,14.33
2019-02-27T08:45:34.386Z,13.83
2019-02-27T08:48:01.903Z,14.70
2019-02-27T08:50:31.640Z,13.07
2019-02-27T08:52:59.645Z,15.50
2019-02-27T08:55:27.888Z,14.47
2019-02-27T08:57:57.018Z,13.90
2019-02-27T09:00:24.732Z,13.50
2019-02-27T09:02:52.423Z,14.00
2019-02-27T09:05:20.975Z,12.67
2019-02-27T09:07:49.956Z,13.10
2019-02-27T09:10:18.005Z,13.50
2019-02-27T09:12:48.801Z,14.43
2019-02-27T09:15:15.563Z,11.43
2019-02-27T09:17:43.378Z,12.03
2019-02-27T09:20:12.658Z,12.17
2019-02-27T09:22:40.199Z,13.00
2019-02-27T09:25:08.082Z,12.63
2019-02-27T09:27:36.026Z,12.20
2019-02-27T09:30:05.155Z,12.70
2019-02-27T09:32:32.930Z,13.07
2019-02-27T09:35:01.085Z,13.83
2019-02-27T09:37:28.638Z,11.33
2019-02-27T09:39:56.182Z,12.60
2019-02-27T09:42:24.810Z,13.20
2019-02-27T09:44:52.614Z,12.80
2019-02-27T09:47:20.098Z,13.20
2019-02-27T09:49:48.274Z,12.63
2019-02-27T09:52:15.800Z,12.50
2019-02-27T09:54:46.769Z,12.03
2019-02-27T09:57:13.646Z,12.33
2019-02-27T09:59:41.592Z,11.57
2019-02-27T10:02:12.416Z,12.07
2019-02-27T10:04:40.535Z,11.90
2019-02-27T10:07:08.657Z,13.27
2019-02-27T10:09:36.505Z,12.60
2019-02-27T10:12:04.706Z,12.20
2019-02-27T10:14:32.203Z,13.30
2019-02-27T10:16:59.783Z,13.57
2019-02-27T10:19:27.777Z,13.23
2019-02-27T10:21:55.951Z,13.37
2019-02-27T10:24:23.818Z,13.13
2019-02-27T10:26:53.603Z,13.20
2019-02-27T10:29:20.660Z,13.37
2019-02-27T10:31:48.843Z,13.10
2019-02-27T10:34:17.631Z,13.60
2019-02-27T10:36:48.560Z,13.87
2019-02-27T10:39:16.418Z,15.23
2019-02-27T10:41:44.927Z,13.30
2019-02-27T10:44:13.175Z,14.63
2019-02-27T10:46:41.206Z,14.27
2019-02-27T10:49:08.996Z,12.37
2019-02-27T10:51:36.842Z,11.77
2019-02-27T10:54:05.532Z,12.47
2019-02-27T10:56:33.746Z,11.50
2019-02-27T10:59:01.826Z,11.50
2019-02-27T11:01:29.642Z,12.40
2019-02-27T11:03:57.082Z,12.20
2019-02-27T11:06:33.543Z,13.60
2019-02-27T11:08:54.368Z,12.20
2019-02-27T11:11:21.974Z,12.60
2019-02-27T11:13:51.740Z,13.67
2019-02-27T11:16:21.360Z,12.53
2019-02-27T11:18:49.443Z,12.50
2019-02-27T11:21:16.951Z,12.13
2019-02-27T11:23:44.511Z,11.83
2019-02-27T11:26:12.128Z,12.33
2019-02-27T11:28:39.761Z,12.47
2019-02-27T11:31:08.457Z,21.63
2019-02-27T11:33:37.280Z,14.10
2019-02-27T11:36:05.673Z,13.30
2019-02-27T11:38:34.195Z,12.33
2019-02-27T11:41:01.758Z,13.63
2019-02-27T11:43:29.619Z,13.10
2019-02-27T11:45:58.142Z,14.47
2019-02-27T11:48:26.742Z,13.40
2019-02-27T11:50:54.569Z,15.13
2019-02-27T11:53:22.363Z,13.27
2019-02-27T11:55:50.523Z,18.00
2019-02-27T11:58:18.385Z,15.77
2019-02-27T12:00:46.153Z,16.07
2019-02-27T12:03:14.031Z,15.97
2019-02-27T12:05:41.930Z,15.47
2019-02-27T12:08:11.374Z,15.23
2019-02-27T12:10:39.043Z,17.53
2019-02-27T12:13:06.622Z,18.20
2019-02-27T12:15:34.106Z,15.77
2019-02-27T12:18:02.114Z,16.90
2019-02-27T12:20:29.718Z,18.27
2019-02-27T12:22:57.683Z,17.97
2019-02-27T12:25:29.048Z,18.70
2019-02-27T12:27:55.954Z,14.83
2019-02-27T12:30:24.246Z,15.57
2019-02-27T12:32:55.715Z,16.13
2019-02-27T12:35:25.987Z,15.37
2019-02-27T12:37:53.787Z,16.27
2019-02-27T12:40:24.940Z,15.30
2019-02-27T12:42:51.240Z,16.97
2019-02-27T12:45:20.649Z,27.57
2019-02-27T12:47:49.443Z,30.10
2019-02-27T12:50:18.718Z,16.30
2019-02-27T12:52:48.141Z,16.00
2019-02-27T12:55:16.488Z,16.30
2019-02-27T12:57:44.084Z,14.90
2019-02-27T13:00:14.691Z,16.97
2019-02-27T13:02:42.535Z,14.90
2019-02-27T13:05:11.309Z,16.00
2019-02-27T13:07:39.455Z,13.80
2019-02-27T13:10:09.323Z,15.90
2019-02-27T13:12:37.323Z,14.30
2019-02-27T13:15:07.358Z,13.60
2019-02-27T13:17:35.709Z,34.40
2019-02-27T13:20:04.320Z,15.60
2019-02-27T13:22:32.255Z,15.90
2019-02-27T13:25:00.365Z,14.30
2019-02-27T13:27:27.997Z,14.20
2019-02-27T13:30:08.463Z,13.77
2019-02-27T13:32:27.327Z,13.20
2019-02-27T13:34:55.022Z,12.90
2019-02-27T13:37:22.610Z,12.10
2019-02-27T13:39:50.403Z,12.57
2019-02-27T13:42:19.309Z,11.40
2019-02-27T13:44:47.136Z,14.37
2019-02-27T13:47:14.614Z,15.70
2019-02-27T13:49:42.364Z,17.53
2019-02-27T13:52:12.751Z,14.33
2019-02-27T13:54:39.862Z,15.03
2019-02-27T13:57:07.626Z,12.90
2019-02-27T13:59:35.882Z,13.80
2019-02-27T14:02:04.812Z,11.00
2019-02-27T14:04:32.445Z,12.40
2019-02-27T14:07:00.265Z,13.50
2019-02-27T14:09:28.075Z,12.70
2019-02-27T14:11:58.396Z,12.87
2019-02-27T14:14:25.647Z,13.27
2019-02-27T14:16:54.338Z,16.30
2019-02-27T14:19:23.889Z,15.00
2019-02-27T14:21:51.886Z,13.83
2019-02-27T14:24:20.607Z,14.10
2019-02-27T14:26:48.842Z,15.60
2019-02-27T14:29:16.686Z,15.43
2019-02-27T14:31:44.448Z,13.20
2019-02-27T14:34:11.995Z,14.87
2019-02-27T14:36:42.396Z,13.70
2019-02-27T14:39:11.090Z,15.13
2019-02-27T14:41:39.215Z,15.00
2019-02-27T14:44:06.798Z,32.47
2019-02-27T14:46:34.701Z,18.90
2019-02-27T14:49:02.832Z,13.10
2019-02-27T14:51:30.346Z,13.67
2019-02-27T14:53:57.912Z,13.57
2019-02-27T14:56:25.779Z,13.70
2019-02-27T14:58:56.589Z,12.03
2019-02-27T15:01:22.689Z,13.87
2019-02-27T15:03:51.111Z,13.00
2019-02-27T15:06:19.383Z,20.47
2019-02-27T15:08:57.436Z,15.47
2019-02-27T15:11:17.518Z,14.17
2019-02-27T15:13:45.053Z,13.87
2019-02-27T15:16:15.356Z,17.80
2019-02-27T15:18:42.504Z,16.50
2019-02-27T15:21:13.019Z,15.13
2019-02-27T15:23:40.314Z,14.87
2019-02-27T15:26:08.602Z,14.70
2019-02-27T15:28:48.354Z,14.50
2019-02-27T15:31:18.172Z,15.60
2019-02-27T15:33:47.502Z,14.00
2019-02-27T15:36:15.411Z,20.27
2019-02-27T15:38:43.511Z,16.17
2019-02-27T15:41:12.395Z,12.77
2019-02-27T15:43:39.977Z,11.07
2019-02-27T15:46:07.603Z,13.07
2019-02-27T15:48:38.069Z,12.50
2019-02-27T15:51:04.888Z,11.83
2019-02-27T15:53:32.359Z,11.23
2019-02-27T15:56:00.106Z,11.30
2019-02-27T15:58:28.054Z,10.80
2019-02-27T16:00:56.652Z,11.40
2019-02-27T16:03:25.389Z,11.30
2019-02-27T16:05:55.729Z,11.93
2019-02-27T16:08:23.986Z,10.13
2019-02-27T16:10:55.112Z,12.00
2019-02-27T16:13:22.429Z,11.63
2019-02-27T16:15:50.623Z,11.20
2019-02-27T16:18:18.791Z,12.60
2019-02-27T16:20:46.981Z,11.70
2019-02-27T16:23:16.706Z,12.80
2019-02-27T16:25:52.889Z,12.60
2019-02-27T16:28:17.966Z,13.20
2019-02-27T16:30:45.834Z,13.70
2019-02-27T16:33:14.019Z,15.83
2019-02-27T16:35:42.973Z,23.63
2019-02-27T16:38:13.048Z,14.63
2019-02-27T16:40:40.675Z,16.57
2019-02-27T16:43:10.325Z,13.67
2019-02-27T16:45:37.733Z,15.50
2019-02-27T16:48:05.793Z,14.17
2019-02-27T16:50:33.721Z,14.47
2019-02-27T16:53:01.848Z,12.40
2019-02-27T16:55:29.863Z,13.70
2019-02-27T16:57:57.938Z,12.67
2019-02-27T17:00:26.790Z,16.07
2019-02-27T17:02:54.317Z,27.80
2019-02-27T17:05:23.607Z,38.80
2019-02-27T17:07:51.766Z,27.40
2019-02-27T17:10:21.873Z,25.97
2019-02-27T17:12:49.520Z,27.60
2019-02-27T17:15:17.175Z,33.70
2019-02-27T17:17:45.046Z,27.87
2019-02-27T17:20:14.177Z,23.53
2019-02-27T17:22:41.663Z,27.20
2019-02-27T17:25:10.088Z,26.00
2019-02-27T17:27:37.722Z,22.43
2019-02-27T17:30:11.562Z,21.07
2019-02-27T17:32:39.410Z,16.93
2019-02-27T17:35:07.310Z,15.83
2019-02-27T17:37:37.382Z,16.30
2019-02-27T17:43:00.087Z,15.93
2019-02-27T17:45:30.424Z,15.47
2019-02-27T17:48:01.687Z,15.60
2019-02-27T17:50:33.783Z,16.80
2019-02-27T17:53:01.835Z,25.90
2019-02-27T17:55:29.625Z,20.80
2019-02-27T17:57:58.600Z,19.80
2019-02-27T18:00:35.646Z,17.83
2019-02-27T18:03:05.009Z,17.03
2019-02-27T18:05:35.934Z,17.20
2019-02-27T18:08:07.204Z,17.40
2019-02-27T18:10:37.576Z,16.00
2019-02-27T18:13:05.187Z,17.00
2019-02-27T18:15:33.108Z,15.30
2019-02-27T18:18:00.694Z,15.97
2019-02-27T18:20:28.980Z,15.80
2019-02-27T18:23:10.131Z,15.90
2019-02-27T18:25:41.169Z,19.07
2019-02-27T18:28:07.172Z,19.00
2019-02-27T18:30:35.078Z,23.17
2019-02-27T18:33:06.006Z,16.90
2019-02-27T18:35:35.876Z,17.53
2019-02-27T18:38:03.789Z,16.77
2019-02-27T18:40:31.979Z,16.93
2019-02-27T18:42:59.875Z,18.07
2019-02-27T18:45:29.778Z,16.93
2019-02-27T18:47:58.659Z,15.57
2019-02-27T18:50:26.896Z,17.00
2019-02-27T18:52:54.891Z,18.50
2019-02-27T18:55:22.487Z,17.13
2019-02-27T18:57:50.074Z,15.63
2019-02-27T19:00:20.609Z,15.77
2019-02-27T19:02:51.939Z,19.67
2019-02-27T19:05:18.600Z,18.10
2019-02-27T19:07:46.671Z,17.90
2019-02-27T19:10:15.092Z,17.00
2019-02-27T19:12:43.286Z,16.33
2019-02-27T19:15:12.625Z,16.03
2019-02-27T19:17:40.667Z,13.37
2019-02-27T19:20:09.641Z,13.90
2019-02-27T19:22:37.558Z,15.77
2019-02-27T19:25:05.547Z,16.07
2019-02-27T19:27:37.557Z,15.30
2019-02-27T19:30:07.330Z,17.07
2019-02-27T19:32:35.129Z,16.30
2019-02-27T19:35:03.144Z,17.50
2019-02-27T19:37:31.172Z,20.00
2019-02-27T19:39:59.311Z,25.13
2019-02-27T19:42:26.795Z,22.37
2019-02-27T19:44:54.958Z,26.70
2019-02-27T19:47:24.823Z,20.40
2019-02-27T19:49:52.428Z,20.70
2019-02-27T19:52:20.110Z,39.87
2019-02-27T19:54:51.512Z,49.27
2019-02-27T19:57:17.367Z,32.80
2019-02-27T20:03:20.042Z,18.10
2019-02-27T20:05:50.424Z,17.47
2019-02-27T20:08:17.082Z,11.63
2019-02-27T20:10:44.877Z,12.43
2019-02-27T20:13:13.081Z,11.23
2019-02-27T20:15:42.820Z,12.03
2019-02-27T20:18:10.849Z,12.50
2019-02-27T20:20:40.940Z,12.60
2019-02-27T20:23:08.212Z,12.50
2019-02-27T20:25:36.167Z,13.00
2019-02-27T20:28:04.600Z,12.13
2019-02-27T20:30:32.195Z,13.30
2019-02-27T20:33:02.601Z,12.73
2019-02-27T20:35:30.025Z,13.70
2019-02-27T20:37:58.346Z,14.60
2019-02-27T20:40:27.663Z,14.10
2019-02-27T20:42:55.630Z,14.60
2019-02-27T20:45:23.231Z,15.30
2019-02-27T20:47:50.960Z,12.80
2019-02-27T20:50:39.083Z,13.50
2019-02-27T20:53:07.413Z,12.37
2019-02-27T20:55:35.049Z,37.80
2019-02-27T20:58:02.791Z,19.07
2019-02-27T21:00:36.065Z,14.93
2019-02-27T21:03:02.467Z,11.53
2019-02-27T21:05:30.021Z,12.07
2019-02-27T21:08:02.086Z,13.77
2019-02-27T21:10:27.487Z,18.83
2019-02-27T21:12:55.359Z,14.20
2019-02-27T21:15:24.787Z,11.63
2019-02-27T21:17:52.335Z,12.67
2019-02-27T21:20:20.119Z,10.90
2019-02-27T21:22:48.004Z,9.80
2019-02-27T21:25:15.871Z,12.30
2019-02-27T21:27:43.766Z,18.60
2019-02-27T21:30:17.743Z,14.30
2019-02-27T21:32:43.130Z,13.50
2019-02-27T21:35:11.131Z,11.87
2019-02-27T21:37:44.588Z,11.90
2019-02-27T21:40:09.051Z,10.90
2019-02-27T21:42:36.879Z,10.30
2019-02-27T21:45:05.478Z,9.57
2019-02-27T21:47:34.614Z,11.33
2019-02-27T21:50:03.633Z,11.13
2019-02-27T21:52:32.839Z,9.57
2019-02-27T21:55:01.159Z,9.63
2019-02-27T21:57:29.092Z,9.90
2019-02-27T21:59:57.050Z,8.57
2019-02-27T22:02:27.241Z,11.13
2019-02-27T22:04:54.787Z,10.63
2019-02-27T22:07:22.271Z,10.57
2019-02-27T22:09:50.723Z,13.13
2019-02-27T22:12:18.942Z,10.70
2019-02-27T22:14:48.542Z,12.90
2019-02-27T22:17:16.262Z,11.10
2019-02-27T22:19:44.513Z,11.30
2019-02-27T22:22:12.215Z,11.63
2019-02-27T22:24:40.001Z,11.63
2019-02-27T22:27:09.167Z,10.87
2019-02-27T22:29:37.897Z,10.20
2019-02-27T22:32:05.509Z,11.27
2019-02-27T22:34:33.430Z,10.50
2019-02-27T22:37:01.586Z,11.77
2019-02-27T22:39:31.618Z,10.00
2019-02-27T22:41:58.586Z,11.83
2019-02-27T22:44:29.247Z,11.10
2019-02-27T22:46:56.519Z,10.70
2019-02-27T22:49:24.680Z,10.53
2019-02-27T22:51:52.577Z,10.93
2019-02-27T22:54:21.905Z,10.50
2019-02-27T22:56:51.575Z,9.93
2019-02-27T22:59:19.417Z,9.80
2019-02-27T23:01:52.505Z,10.60
2019-02-27T23:04:20.530Z,9.97
2019-02-27T23:06:48.398Z,9.53
2019-02-27T23:09:16.718Z,9.57
2019-02-27T23:11:45.174Z,9.20
2019-02-27T23:14:12.969Z,9.60
2019-02-27T23:16:40.873Z,9.27
2019-02-27T23:19:12.165Z,8.73
2019-02-27T23:21:38.107Z,8.20
2019-02-27T23:24:07.176Z,8.80
2019-02-27T23:26:36.086Z,8.37
2019-02-27T23:29:05.554Z,8.23
2019-02-27T23:31:33.557Z,8.07
2019-02-27T23:34:01.136Z,7.87
2019-02-27T23:36:28.945Z,10.90
2019-02-27T23:38:56.611Z,8.40
2019-02-27T23:41:24.429Z,8.83
2019-02-27T23:43:52.549Z,9.43
2019-02-27T23:46:20.385Z,9.73
2019-02-27T23:48:48.526Z,10.33
2019-02-27T23:51:17.015Z,10.43
2019-02-27T23:53:44.868Z,11.20
2019-02-27T23:56:19.331Z,10.80
2019-02-27T23:58:42.854Z,11.50
